West Palm Beach, FL (33401)

5:49 PM EDT on April 29, 2017 (GMT -0400)
BANYAN CAY GOLF - Zaretsky Law Group - West Palm Beach | | Change Station

Elev 60 ft 26.73 °N, 80.08 °W | Updated 4 minutes ago

Partly Cloudy
Partly Cloudy
81.3 °F
Feels Like 87 °F
N
2.0
Wind Variable Wind from SE
Gusts 9.0 mph

Today
High -- | Low -- °F
--% Chance of Precip.
Yesterday
High -- | Low -- °F
Precip. -- in
Pressure 30.11 in
Visibility 10.0 miles
Clouds Scattered Clouds 2200 ft
Scattered Clouds 25000 ft
Heat Index 87 °F
Dew Point 73 °F
Humidity 77%
Rainfall 0.00 in
Snow Depth Not available.
6:43 AM 7:51 PM
Waxing Crescent, 16% visible
METAR KPBI 292053Z 12017G22KT 10SM SCT022 SCT250 28/20 A3011 RMK AO2 SLP195 T02830200 58017
Pressure 30.11 in
Visibility 10.0 miles
Clouds Scattered Clouds 2200 ft
Scattered Clouds 25000 ft
Heat Index 87 °F
Dew Point 73 °F
Humidity 77%
Rainfall 0.00 in
Snow Depth Not available.
6:43 AM 7:51 PM
Waxing Crescent, 16% visible
METAR KPBI 292053Z 12017G22KT 10SM SCT022 SCT250 28/20 A3011 RMK AO2 SLP195 T02830200 58017

Get Severe Weather Alerts

Thanks for signing up!

Be on the lookout for a verification email in your inbox.

You'll start receiving the daily forecast at 8 AM.

×

10-Day Weather Forecast

Almanac

Astronomy

Apr. 29, 2017 Rise Set
Actual Time
Civil Twilight
Nautical Twilight
Astronomical Twilight
Moon
Length of Visible Light
Length of Day
Tomorrow will be .
, % of the Moon is Illuminated

Today's Extremes

State Highs State Lows

Community

WunderPhotos

WunderBlog® & News

Nearby

Air Quality

  Air Quality AQ Index Pollutant
Not available.

Snow Depth

Station Depth Elevation

Earthquake Activity

City Distance Mag. Time & Date
Minimum magnitude displayed is 2.5.

Coastal Water Temperatures

Place Temperature

Stations

Nearby Weather Stations

Station Location Temp. Windchill Dew Point Humidity Wind Precip. Elev Updated Type
                   

Watches & Warnings

There are currently no watches in effect.